UKV7371 UAAA-EGSS
Flight info
| Callsign | UKV7371 |
|---|---|
| Flight time | N/A |
| Altitude | 38000 |
| Route | TIPSA1A TIPSA M610 TOMGO L147 GEDSA L728 SIVKO/K0922F400 M166 ARISA L736 ASKIL L735 BADUS/N0484F400 DCT VABER L29 GRUDA L23 WSN N125 SILQI N872 PAM L980 IDRID M40 RINIS |
| Aircraft | A359/H-SDE2E3GHIJ3J4J5LM1ORWXY/LB1D1 |
Departure
| Time | 2026-05-01 09:41 |
|---|---|
| Airport | Almaty International Airport (UAAA) |
Arrival
| Time | N/A |
|---|---|
| Airport | London Stansted Airport (EGSS) |
| Time | Latitude | Longitude | Altitude | Speed | Heading |
|---|---|---|---|---|---|
| 2026-05-01 09:17 | 43.35036 | 77.01265 | 2235 ft | 0 kts | 246° |
| 2026-05-01 09:25 | 43.35038 | 77.01270 | 2235 ft | 3 kts | 245° |
| 2026-05-01 09:26 | 43.35050 | 77.01301 | 2235 ft | 4 kts | 237° |
| 2026-05-01 09:26 | 43.35086 | 77.01353 | 2235 ft | 4 kts | 204° |
| 2026-05-01 09:26 | 43.35109 | 77.01359 | 2235 ft | 3 kts | 158° |
| 2026-05-01 09:27 | 43.35112 | 77.01358 | 2235 ft | 0 kts | 155° |
| 2026-05-01 09:27 | 43.35111 | 77.01358 | 2235 ft | 0 kts | 155° |
| 2026-05-01 09:31 | 43.35095 | 77.01368 | 2233 ft | 7 kts | 155° |
| 2026-05-01 09:31 | 43.35013 | 77.01419 | 2235 ft | 7 kts | 156° |
| 2026-05-01 09:32 | 43.34967 | 77.01447 | 2235 ft | 10 kts | 156° |
| 2026-05-01 09:32 | 43.34844 | 77.01532 | 2230 ft | 9 kts | 131° |
| 2026-05-01 09:32 | 43.34820 | 77.01604 | 2235 ft | 8 kts | 104° |
| 2026-05-01 09:33 | 43.34813 | 77.01682 | 2235 ft | 9 kts | 96° |
| 2026-05-01 09:33 | 43.34806 | 77.01784 | 2235 ft | 13 kts | 94° |
| 2026-05-01 09:33 | 43.34792 | 77.02102 | 2235 ft | 17 kts | 93° |
| 2026-05-01 09:34 | 43.34785 | 77.02259 | 2232 ft | 16 kts | 92° |
| 2026-05-01 09:34 | 43.34780 | 77.02409 | 2235 ft | 14 kts | 93° |
| 2026-05-01 09:34 | 43.34817 | 77.02668 | 2229 ft | 16 kts | 61° |
| 2026-05-01 09:35 | 43.34880 | 77.02806 | 2227 ft | 17 kts | 56° |
| 2026-05-01 09:35 | 43.35003 | 77.03051 | 2225 ft | 14 kts | 54° |
| 2026-05-01 09:35 | 43.35055 | 77.03155 | 2235 ft | 15 kts | 55° |
| 2026-05-01 09:36 | 43.35130 | 77.03303 | 2233 ft | 24 kts | 55° |
| 2026-05-01 09:36 | 43.35245 | 77.03542 | 2235 ft | 35 kts | 56° |
| 2026-05-01 09:36 | 43.35381 | 77.03817 | 2231 ft | 34 kts | 56° |
| 2026-05-01 09:36 | 43.35510 | 77.04080 | 2232 ft | 32 kts | 56° |
| 2026-05-01 09:37 | 43.35632 | 77.04326 | 2233 ft | 30 kts | 56° |
| 2026-05-01 09:37 | 43.35845 | 77.04752 | 2232 ft | 28 kts | 56° |
| 2026-05-01 09:37 | 43.35951 | 77.04965 | 2232 ft | 26 kts | 56° |
| 2026-05-01 09:38 | 43.36144 | 77.05355 | 2228 ft | 23 kts | 56° |
| 2026-05-01 09:38 | 43.36234 | 77.05537 | 2232 ft | 22 kts | 56° |
| 2026-05-01 09:38 | 43.36331 | 77.05734 | 2225 ft | 29 kts | 56° |
| 2026-05-01 09:39 | 43.36481 | 77.06132 | 2228 ft | 17 kts | 115° |
| 2026-05-01 09:39 | 43.36396 | 77.06191 | 2236 ft | 14 kts | 184° |
| 2026-05-01 09:39 | 43.36311 | 77.06143 | 2236 ft | 13 kts | 217° |
| 2026-05-01 09:40 | 43.36271 | 77.06080 | 2237 ft | 0 kts | 236° |
| 2026-05-01 09:40 | 43.35860 | 77.05247 | 2235 ft | 112 kts | 236° |
| 2026-05-01 09:40 | 43.35326 | 77.04170 | 2235 ft | 160 kts | 236° |
| 2026-05-01 09:41 | 43.34658 | 77.02860 | 2671 ft | 167 kts | 234° |
| 2026-05-01 09:41 | 43.33343 | 77.00148 | 3424 ft | 185 kts | 239° |
| 2026-05-01 09:41 | 43.32638 | 76.98561 | 3613 ft | 205 kts | 240° |
| 2026-05-01 09:42 | 43.32147 | 76.96692 | 3676 ft | 216 kts | 266° |
| 2026-05-01 09:42 | 43.32545 | 76.94704 | 3718 ft | 225 kts | 308° |
| 2026-05-01 09:42 | 43.35019 | 76.91961 | 3974 ft | 241 kts | 325° |
| 2026-05-01 09:43 | 43.37827 | 76.89187 | 4187 ft | 256 kts | 324° |
| 2026-05-01 09:43 | 43.39285 | 76.87713 | 4272 ft | 263 kts | 324° |
| 2026-05-01 09:43 | 43.40794 | 76.86186 | 4385 ft | 268 kts | 324° |
| 2026-05-01 09:44 | 43.43809 | 76.83111 | 4705 ft | 275 kts | 323° |
| 2026-05-01 09:44 | 43.45235 | 76.81526 | 4885 ft | 277 kts | 315° |
| 2026-05-01 09:44 | 43.46324 | 76.79331 | 5277 ft | 280 kts | 295° |
| 2026-05-01 09:45 | 43.47086 | 76.76868 | 5878 ft | 279 kts | 292° |
| 2026-05-01 09:45 | 43.48479 | 76.72092 | 6924 ft | 282 kts | 291° |
| 2026-05-01 09:45 | 43.49217 | 76.69573 | 7420 ft | 284 kts | 292° |
| 2026-05-01 09:46 | 43.49959 | 76.67044 | 7944 ft | 286 kts | 292° |
| 2026-05-01 09:46 | 43.50673 | 76.64615 | 8426 ft | 288 kts | 292° |
| 2026-05-01 09:46 | 43.51428 | 76.62047 | 8928 ft | 290 kts | 292° |
| 2026-05-01 09:46 | 43.52188 | 76.59463 | 9439 ft | 291 kts | 291° |
| 2026-05-01 09:47 | 43.52937 | 76.56861 | 9886 ft | 294 kts | 291° |
| 2026-05-01 09:47 | 43.53713 | 76.54223 | 10249 ft | 302 kts | 292° |
| 2026-05-01 09:47 | 43.54519 | 76.51483 | 10454 ft | 314 kts | 291° |
| 2026-05-01 09:47 | 43.55341 | 76.48620 | 10638 ft | 328 kts | 291° |
| 2026-05-01 09:48 | 43.56149 | 76.45854 | 10821 ft | 339 kts | 291° |
| 2026-05-01 09:48 | 43.57042 | 76.42802 | 10983 ft | 350 kts | 291° |
| 2026-05-01 09:48 | 43.57966 | 76.39638 | 11171 ft | 361 kts | 291° |
| 2026-05-01 09:48 | 43.58914 | 76.36380 | 11348 ft | 370 kts | 291° |
| 2026-05-01 09:49 | 43.59788 | 76.33007 | 11622 ft | 376 kts | 284° |
| 2026-05-01 09:49 | 43.60180 | 76.29440 | 12022 ft | 378 kts | 274° |
| 2026-05-01 09:49 | 43.60364 | 76.25816 | 12441 ft | 380 kts | 273° |
| 2026-05-01 09:49 | 43.60526 | 76.22172 | 12852 ft | 380 kts | 272° |
| 2026-05-01 09:50 | 43.60688 | 76.18524 | 13190 ft | 383 kts | 273° |
| 2026-05-01 09:50 | 43.60853 | 76.14848 | 13531 ft | 386 kts | 272° |
| 2026-05-01 09:50 | 43.61013 | 76.11146 | 13910 ft | 389 kts | 273° |
| 2026-05-01 09:50 | 43.61184 | 76.07420 | 14398 ft | 389 kts | 274° |
| 2026-05-01 09:51 | 43.61363 | 76.03706 | 14783 ft | 388 kts | 273° |
| 2026-05-01 09:51 | 43.61538 | 75.99965 | 15068 ft | 390 kts | 273° |
| 2026-05-01 09:51 | 43.61707 | 75.96222 | 15287 ft | 393 kts | 274° |
| 2026-05-01 09:51 | 43.61883 | 75.92427 | 15720 ft | 396 kts | 273° |
| 2026-05-01 09:52 | 43.62058 | 75.88632 | 16154 ft | 397 kts | 273° |
| 2026-05-01 09:52 | 43.62226 | 75.84821 | 16523 ft | 399 kts | 273° |
| 2026-05-01 09:52 | 43.62393 | 75.80997 | 16884 ft | 401 kts | 273° |
| 2026-05-01 09:52 | 43.62561 | 75.77150 | 17235 ft | 403 kts | 273° |
| 2026-05-01 09:53 | 43.62729 | 75.73283 | 17594 ft | 404 kts | 273° |
| 2026-05-01 09:53 | 43.62896 | 75.69399 | 17942 ft | 406 kts | 273° |
| 2026-05-01 09:53 | 43.63064 | 75.65500 | 18278 ft | 408 kts | 273° |
| 2026-05-01 09:53 | 43.63231 | 75.61578 | 18635 ft | 410 kts | 273° |
| 2026-05-01 09:54 | 43.63392 | 75.57646 | 18991 ft | 411 kts | 273° |
| 2026-05-01 09:54 | 43.63558 | 75.53689 | 19319 ft | 413 kts | 273° |
| 2026-05-01 09:54 | 43.63724 | 75.49723 | 19639 ft | 416 kts | 273° |
| 2026-05-01 09:54 | 43.63895 | 75.45724 | 20037 ft | 417 kts | 273° |
| 2026-05-01 09:55 | 43.64058 | 75.41719 | 20359 ft | 419 kts | 272° |
| 2026-05-01 09:55 | 43.64218 | 75.37696 | 20645 ft | 421 kts | 272° |
| 2026-05-01 09:55 | 43.64376 | 75.33655 | 20929 ft | 423 kts | 272° |
| 2026-05-01 09:55 | 43.64534 | 75.29596 | 21185 ft | 424 kts | 272° |
| 2026-05-01 09:56 | 43.64692 | 75.25521 | 21465 ft | 426 kts | 272° |
| 2026-05-01 09:56 | 43.64849 | 75.21430 | 21736 ft | 428 kts | 272° |
| 2026-05-01 09:56 | 43.65004 | 75.17380 | 21999 ft | 429 kts | 272° |
| 2026-05-01 09:56 | 43.65164 | 75.13199 | 22263 ft | 431 kts | 272° |
| 2026-05-01 09:57 | 43.65319 | 75.09066 | 22514 ft | 432 kts | 272° |
| 2026-05-01 09:57 | 43.65475 | 75.04912 | 22774 ft | 433 kts | 272° |
| 2026-05-01 09:57 | 43.65629 | 75.00750 | 23012 ft | 436 kts | 272° |
| 2026-05-01 09:57 | 43.65782 | 74.96568 | 23286 ft | 437 kts | 272° |
| 2026-05-01 09:58 | 43.65934 | 74.92376 | 23546 ft | 438 kts | 272° |
| 2026-05-01 09:58 | 43.66083 | 74.88223 | 23761 ft | 439 kts | 272° |
| 2026-05-01 09:58 | 43.66235 | 74.83949 | 23996 ft | 441 kts | 272° |
| 2026-05-01 09:58 | 43.66383 | 74.79713 | 24221 ft | 442 kts | 272° |
| 2026-05-01 09:59 | 43.66529 | 74.75461 | 24444 ft | 444 kts | 272° |
| 2026-05-01 09:59 | 43.66672 | 74.71251 | 24669 ft | 445 kts | 272° |
| 2026-05-01 09:59 | 43.66817 | 74.66984 | 24887 ft | 446 kts | 272° |
| 2026-05-01 09:59 | 43.66961 | 74.62699 | 25099 ft | 447 kts | 272° |
| 2026-05-01 10:00 | 43.67104 | 74.58406 | 25324 ft | 448 kts | 272° |
| 2026-05-01 10:00 | 43.67247 | 74.54095 | 25542 ft | 450 kts | 272° |
| 2026-05-01 10:00 | 43.67387 | 74.49777 | 25760 ft | 451 kts | 272° |
| 2026-05-01 10:00 | 43.67524 | 74.45446 | 25980 ft | 452 kts | 272° |
| 2026-05-01 10:01 | 43.67661 | 74.41101 | 26193 ft | 453 kts | 272° |
| 2026-05-01 10:01 | 43.67798 | 74.36746 | 26406 ft | 454 kts | 271° |
| 2026-05-01 10:01 | 43.67933 | 74.32382 | 26632 ft | 456 kts | 271° |
| 2026-05-01 10:01 | 43.68065 | 74.28015 | 26810 ft | 456 kts | 271° |
| 2026-05-01 10:02 | 43.68198 | 74.23628 | 26974 ft | 457 kts | 272° |
| 2026-05-01 10:02 | 43.68336 | 74.19226 | 27231 ft | 457 kts | 271° |
| 2026-05-01 10:02 | 43.68464 | 74.14826 | 27395 ft | 461 kts | 271° |
| 2026-05-01 10:02 | 43.68550 | 74.11829 | 27571 ft | 461 kts | 271° |
| 2026-05-01 10:03 | 43.68681 | 74.07407 | 27823 ft | 462 kts | 271° |
| 2026-05-01 10:03 | 43.68815 | 74.02968 | 28046 ft | 463 kts | 271° |
| 2026-05-01 10:03 | 43.68947 | 73.98515 | 28283 ft | 465 kts | 271° |
| 2026-05-01 10:03 | 43.69078 | 73.94052 | 28491 ft | 466 kts | 271° |
| 2026-05-01 10:04 | 43.69206 | 73.89590 | 28726 ft | 467 kts | 271° |
| 2026-05-01 10:04 | 43.69332 | 73.85156 | 28938 ft | 468 kts | 271° |
| 2026-05-01 10:04 | 43.69639 | 73.80667 | 29139 ft | 471 kts | 278° |
| 2026-05-01 10:04 | 43.70376 | 73.76252 | 29334 ft | 472 kts | 286° |
| 2026-05-01 10:05 | 43.73254 | 73.68063 | 29530 ft | 480 kts | 302° |
| 2026-05-01 10:05 | 43.75132 | 73.64319 | 29727 ft | 483 kts | 304° |
| 2026-05-01 10:05 | 43.77129 | 73.60572 | 29932 ft | 483 kts | 305° |
| 2026-05-01 10:06 | 43.79180 | 73.56809 | 30100 ft | 485 kts | 305° |
| 2026-05-01 10:06 | 43.81196 | 73.53126 | 30308 ft | 486 kts | 305° |
| 2026-05-01 10:06 | 43.83267 | 73.49325 | 30500 ft | 488 kts | 305° |
| 2026-05-01 10:06 | 43.85274 | 73.45608 | 30700 ft | 489 kts | 304° |
| 2026-05-01 10:07 | 43.87308 | 73.41814 | 30901 ft | 491 kts | 304° |
| 2026-05-01 10:07 | 43.89338 | 73.38005 | 31116 ft | 492 kts | 304° |
| 2026-05-01 10:07 | 43.91373 | 73.34181 | 31388 ft | 491 kts | 304° |
| 2026-05-01 10:07 | 43.93399 | 73.30375 | 31596 ft | 492 kts | 304° |
| 2026-05-01 10:08 | 43.97443 | 73.22729 | 32126 ft | 491 kts | 304° |
| 2026-05-01 10:08 | 43.99466 | 73.18895 | 32392 ft | 491 kts | 304° |
| 2026-05-01 10:08 | 44.01481 | 73.15076 | 32665 ft | 490 kts | 304° |
| 2026-05-01 10:09 | 44.03489 | 73.11263 | 32970 ft | 489 kts | 304° |
| 2026-05-01 10:09 | 44.05498 | 73.07445 | 33265 ft | 488 kts | 304° |
| 2026-05-01 10:09 | 44.07500 | 73.03637 | 33537 ft | 488 kts | 304° |
| 2026-05-01 10:09 | 44.09500 | 72.99831 | 33813 ft | 487 kts | 304° |
| 2026-05-01 10:10 | 44.11497 | 72.96029 | 34071 ft | 486 kts | 304° |
| 2026-05-01 10:10 | 44.13493 | 72.92228 | 34326 ft | 486 kts | 304° |
| 2026-05-01 10:10 | 44.17452 | 72.84632 | 34807 ft | 485 kts | 304° |
| 2026-05-01 10:11 | 44.19430 | 72.80827 | 35053 ft | 484 kts | 304° |
| 2026-05-01 10:11 | 44.21409 | 72.77016 | 35283 ft | 484 kts | 304° |
| 2026-05-01 10:11 | 44.23384 | 72.73212 | 35482 ft | 484 kts | 304° |
| 2026-05-01 10:11 | 44.25355 | 72.69405 | 35717 ft | 484 kts | 304° |
| 2026-05-01 10:12 | 44.27323 | 72.65605 | 35935 ft | 483 kts | 304° |
| 2026-05-01 10:12 | 44.29290 | 72.61802 | 36149 ft | 483 kts | 304° |
| 2026-05-01 10:12 | 44.33229 | 72.54195 | 36521 ft | 483 kts | 304° |
| 2026-05-01 10:13 | 44.35196 | 72.50384 | 36717 ft | 483 kts | 304° |
| 2026-05-01 10:13 | 44.37158 | 72.46584 | 36995 ft | 481 kts | 304° |
| 2026-05-01 10:13 | 44.39103 | 72.42807 | 37327 ft | 477 kts | 304° |
| 2026-05-01 10:14 | 44.42955 | 72.35304 | 37779 ft | 474 kts | 304° |
| 2026-05-01 10:14 | 44.44873 | 72.31562 | 37904 ft | 475 kts | 304° |
| 2026-05-01 10:14 | 44.48739 | 72.24000 | 37957 ft | 479 kts | 304° |
| 2026-05-01 10:15 | 44.52613 | 72.16401 | 37949 ft | 479 kts | 304° |
| 2026-05-01 10:15 | 44.56486 | 72.08802 | 37962 ft | 479 kts | 304° |
| 2026-05-01 10:16 | 44.60328 | 72.01245 | 37960 ft | 479 kts | 304° |
| 2026-05-01 10:17 | 44.66090 | 71.89860 | 37950 ft | 479 kts | 303° |
| 2026-05-01 10:17 | 44.71867 | 71.78405 | 37946 ft | 479 kts | 303° |
| 2026-05-01 10:18 | 44.77632 | 71.66931 | 37954 ft | 479 kts | 303° |
| 2026-05-01 10:19 | 44.81469 | 71.59262 | 37950 ft | 479 kts | 303° |
| 2026-05-01 10:19 | 44.85300 | 71.51584 | 37947 ft | 479 kts | 303° |
| 2026-05-01 10:20 | 44.91036 | 71.40053 | 37947 ft | 478 kts | 303° |
| 2026-05-01 10:20 | 44.94851 | 71.32360 | 37955 ft | 479 kts | 303° |
| 2026-05-01 10:21 | 45.00572 | 71.20787 | 37941 ft | 479 kts | 303° |
| 2026-05-01 10:22 | 45.06278 | 71.09195 | 37939 ft | 479 kts | 303° |
| 2026-05-01 10:23 | 45.11834 | 70.97861 | 37943 ft | 479 kts | 303° |
| 2026-05-01 10:23 | 45.17517 | 70.86222 | 37941 ft | 479 kts | 303° |
| 2026-05-01 10:24 | 45.25104 | 70.70619 | 37941 ft | 479 kts | 303° |
| 2026-05-01 10:25 | 45.32630 | 70.55096 | 37943 ft | 479 kts | 303° |
| 2026-05-01 10:26 | 45.36403 | 70.47286 | 37941 ft | 479 kts | 302° |
| 2026-05-01 10:27 | 45.43931 | 70.31629 | 37941 ft | 479 kts | 302° |
| 2026-05-01 10:28 | 45.49566 | 70.19861 | 37941 ft | 479 kts | 302° |
| 2026-05-01 10:28 | 45.55188 | 70.08069 | 37941 ft | 479 kts | 302° |
| 2026-05-01 10:29 | 45.60797 | 69.96254 | 37942 ft | 479 kts | 302° |
| 2026-05-01 10:30 | 45.68260 | 69.80449 | 37946 ft | 480 kts | 302° |
| 2026-05-01 10:31 | 45.75704 | 69.64604 | 37941 ft | 480 kts | 302° |
| 2026-05-01 10:32 | 45.81274 | 69.52694 | 37943 ft | 479 kts | 302° |
| 2026-05-01 10:33 | 45.88676 | 69.36782 | 37933 ft | 480 kts | 302° |
| 2026-05-01 10:34 | 45.94216 | 69.24816 | 37934 ft | 480 kts | 301° |
| 2026-05-01 10:34 | 45.97905 | 69.16819 | 37938 ft | 480 kts | 301° |
| 2026-05-01 10:35 | 46.03431 | 69.04800 | 37933 ft | 480 kts | 301° |
| 2026-05-01 10:35 | 46.07100 | 68.96780 | 37932 ft | 480 kts | 301° |
| 2026-05-01 10:36 | 46.12574 | 68.84705 | 37938 ft | 480 kts | 301° |
| 2026-05-01 10:37 | 46.16218 | 68.76642 | 37930 ft | 480 kts | 301° |
| 2026-05-01 10:37 | 46.21680 | 68.64526 | 37935 ft | 480 kts | 300° |
| 2026-05-01 10:38 | 46.25313 | 68.56438 | 37935 ft | 480 kts | 300° |
| 2026-05-01 10:38 | 46.28942 | 68.48335 | 37943 ft | 481 kts | 300° |
| 2026-05-01 10:39 | 46.32571 | 68.40212 | 37962 ft | 481 kts | 300° |
| 2026-05-01 10:39 | 46.36193 | 68.32082 | 37957 ft | 481 kts | 300° |
| 2026-05-01 10:40 | 46.39808 | 68.23939 | 37946 ft | 481 kts | 300° |
| 2026-05-01 10:40 | 46.43420 | 68.15780 | 37942 ft | 481 kts | 300° |
| 2026-05-01 10:41 | 46.47025 | 68.07615 | 37940 ft | 481 kts | 300° |
| 2026-05-01 10:42 | 46.52425 | 67.95340 | 37939 ft | 481 kts | 300° |
| 2026-05-01 10:42 | 46.55410 | 67.88532 | 37946 ft | 480 kts | 300° |
| 2026-05-01 10:43 | 46.58939 | 67.80300 | 37940 ft | 480 kts | 299° |
| 2026-05-01 10:43 | 46.62441 | 67.72037 | 37951 ft | 480 kts | 299° |
| 2026-05-01 10:44 | 46.65964 | 67.63782 | 37942 ft | 480 kts | 300° |
| 2026-05-01 10:44 | 46.69548 | 67.55586 | 37943 ft | 480 kts | 300° |
| 2026-05-01 10:45 | 46.73136 | 67.47393 | 37942 ft | 480 kts | 300° |
| 2026-05-01 10:45 | 46.76709 | 67.39184 | 37947 ft | 479 kts | 299° |
| 2026-05-01 10:46 | 46.80269 | 67.30964 | 37941 ft | 479 kts | 299° |
| 2026-05-01 10:46 | 46.83822 | 67.22731 | 37941 ft | 479 kts | 299° |
| 2026-05-01 10:47 | 46.87370 | 67.14486 | 37941 ft | 479 kts | 299° |
| 2026-05-01 10:47 | 46.90894 | 67.06216 | 37938 ft | 479 kts | 298° |
| 2026-05-01 10:48 | 46.94337 | 66.97875 | 37938 ft | 478 kts | 298° |
| 2026-05-01 10:48 | 46.97787 | 66.89564 | 37945 ft | 478 kts | 298° |
| 2026-05-01 10:49 | 47.01300 | 66.81271 | 37944 ft | 480 kts | 298° |
| 2026-05-01 10:49 | 47.04844 | 66.72903 | 37944 ft | 486 kts | 298° |
| 2026-05-01 10:50 | 47.08413 | 66.64433 | 37940 ft | 490 kts | 298° |
| 2026-05-01 10:50 | 47.11989 | 66.55914 | 37938 ft | 490 kts | 298° |
| 2026-05-01 10:51 | 47.15557 | 66.47382 | 37954 ft | 490 kts | 298° |
| 2026-05-01 10:51 | 47.19117 | 66.38844 | 37944 ft | 490 kts | 298° |
| 2026-05-01 10:52 | 47.22673 | 66.30287 | 37951 ft | 490 kts | 298° |
| 2026-05-01 10:52 | 47.26225 | 66.21717 | 37945 ft | 490 kts | 298° |
| 2026-05-01 10:53 | 47.29772 | 66.13127 | 37938 ft | 490 kts | 298° |
| 2026-05-01 10:53 | 47.33276 | 66.04618 | 37940 ft | 490 kts | 298° |
| 2026-05-01 10:54 | 47.36806 | 65.96014 | 37942 ft | 491 kts | 298° |
| 2026-05-01 10:54 | 47.40335 | 65.87387 | 37941 ft | 491 kts | 297° |
| 2026-05-01 10:55 | 47.43858 | 65.78746 | 37938 ft | 491 kts | 297° |
| 2026-05-01 10:55 | 47.47354 | 65.70079 | 37943 ft | 491 kts | 297° |
| 2026-05-01 10:56 | 47.50812 | 65.61467 | 37946 ft | 491 kts | 297° |
| 2026-05-01 10:56 | 47.54295 | 65.52774 | 37943 ft | 491 kts | 297° |
| 2026-05-01 10:57 | 47.57776 | 65.44069 | 37947 ft | 491 kts | 297° |
| 2026-05-01 10:57 | 47.61250 | 65.35348 | 37950 ft | 491 kts | 297° |
| 2026-05-01 10:58 | 47.64726 | 65.26604 | 37951 ft | 494 kts | 297° |
| 2026-05-01 10:58 | 47.68211 | 65.17808 | 37962 ft | 494 kts | 297° |
| 2026-05-01 10:59 | 47.71687 | 65.09002 | 37950 ft | 494 kts | 297° |
| 2026-05-01 10:59 | 47.75127 | 65.00263 | 37954 ft | 495 kts | 297° |
| 2026-05-01 11:00 | 47.78593 | 64.91429 | 37923 ft | 495 kts | 297° |
| 2026-05-01 11:00 | 47.82063 | 64.82586 | 37916 ft | 495 kts | 297° |
| 2026-05-01 11:01 | 47.85523 | 64.73727 | 37915 ft | 495 kts | 297° |
| 2026-05-01 11:01 | 47.88976 | 64.64857 | 37915 ft | 495 kts | 297° |
| 2026-05-01 11:02 | 47.92429 | 64.55969 | 37915 ft | 496 kts | 297° |
| 2026-05-01 11:02 | 47.95872 | 64.47079 | 37915 ft | 496 kts | 297° |
| 2026-05-01 11:03 | 47.99318 | 64.38153 | 37916 ft | 496 kts | 296° |
| 2026-05-01 11:03 | 48.02750 | 64.29224 | 37915 ft | 496 kts | 296° |
| 2026-05-01 11:04 | 48.06180 | 64.20272 | 37909 ft | 496 kts | 296° |
| 2026-05-01 11:04 | 48.09602 | 64.11317 | 37906 ft | 496 kts | 296° |
| 2026-05-01 11:05 | 48.13021 | 64.02336 | 37906 ft | 496 kts | 296° |
| 2026-05-01 11:05 | 48.16428 | 63.93352 | 37906 ft | 496 kts | 296° |
| 2026-05-01 11:06 | 48.19830 | 63.84358 | 37922 ft | 496 kts | 296° |
| 2026-05-01 11:06 | 48.23227 | 63.75344 | 37928 ft | 496 kts | 296° |
| 2026-05-01 11:07 | 48.28307 | 63.61802 | 37929 ft | 496 kts | 296° |
| 2026-05-01 11:07 | 48.31677 | 63.52769 | 37929 ft | 496 kts | 296° |
| 2026-05-01 11:08 | 48.35052 | 63.43711 | 37960 ft | 496 kts | 296° |
| 2026-05-01 11:09 | 48.40098 | 63.30107 | 37950 ft | 496 kts | 296° |
| 2026-05-01 11:09 | 48.43451 | 63.21026 | 37961 ft | 496 kts | 296° |
| 2026-05-01 11:10 | 48.48468 | 63.07382 | 37961 ft | 496 kts | 296° |
| 2026-05-01 11:10 | 48.51773 | 62.98347 | 37956 ft | 496 kts | 296° |
| 2026-05-01 11:11 | 48.55098 | 62.89229 | 37952 ft | 496 kts | 296° |
| 2026-05-01 11:11 | 48.58421 | 62.80087 | 37951 ft | 496 kts | 296° |
| 2026-05-01 11:12 | 48.61724 | 62.70952 | 37953 ft | 496 kts | 295° |
| 2026-05-01 11:12 | 48.64433 | 62.61426 | 37957 ft | 493 kts | 289° |
| 2026-05-01 11:13 | 48.66863 | 62.51841 | 37965 ft | 493 kts | 288° |
| 2026-05-01 11:13 | 48.69267 | 62.42135 | 37961 ft | 493 kts | 288° |
| 2026-05-01 11:14 | 48.71669 | 62.32418 | 37958 ft | 492 kts | 288° |
| 2026-05-01 11:14 | 48.74067 | 62.22712 | 37957 ft | 492 kts | 288° |
| 2026-05-01 11:15 | 48.76330 | 62.13527 | 37961 ft | 492 kts | 288° |
| 2026-05-01 11:15 | 48.78717 | 62.03800 | 37956 ft | 493 kts | 288° |
| 2026-05-01 11:16 | 48.81097 | 61.94057 | 37965 ft | 492 kts | 288° |
| 2026-05-01 11:16 | 48.83464 | 61.84321 | 37961 ft | 492 kts | 288° |
| 2026-05-01 11:17 | 48.85822 | 61.74574 | 37959 ft | 492 kts | 287° |
| 2026-05-01 11:17 | 48.88174 | 61.64818 | 37965 ft | 492 kts | 287° |
| 2026-05-01 11:18 | 48.90513 | 61.55065 | 37963 ft | 491 kts | 287° |
| 2026-05-01 11:18 | 48.92849 | 61.45292 | 37960 ft | 492 kts | 287° |
| 2026-05-01 11:19 | 48.95175 | 61.35503 | 37960 ft | 492 kts | 287° |
| 2026-05-01 11:19 | 48.97488 | 61.25721 | 37957 ft | 491 kts | 287° |
| 2026-05-01 11:20 | 48.99799 | 61.15931 | 37962 ft | 491 kts | 287° |
| 2026-05-01 11:20 | 49.02096 | 61.06140 | 37962 ft | 491 kts | 287° |
| 2026-05-01 11:21 | 49.04398 | 60.96273 | 37960 ft | 491 kts | 287° |
| 2026-05-01 11:21 | 49.06677 | 60.86466 | 37970 ft | 491 kts | 287° |
| 2026-05-01 11:22 | 49.08950 | 60.76647 | 37956 ft | 491 kts | 287° |
| 2026-05-01 11:22 | 49.11212 | 60.66832 | 37959 ft | 490 kts | 287° |
| 2026-05-01 11:23 | 49.13085 | 60.58665 | 37959 ft | 490 kts | 287° |
| 2026-05-01 11:23 | 49.15327 | 60.48850 | 37959 ft | 490 kts | 286° |
| 2026-05-01 11:24 | 49.17565 | 60.38998 | 37964 ft | 490 kts | 286° |
| 2026-05-01 11:25 | 49.20904 | 60.24235 | 37978 ft | 490 kts | 286° |
| 2026-05-01 11:25 | 49.24223 | 60.09446 | 37966 ft | 490 kts | 286° |
| 2026-05-01 11:26 | 49.27521 | 59.94645 | 37977 ft | 489 kts | 286° |
| 2026-05-01 11:27 | 49.29704 | 59.84784 | 37971 ft | 489 kts | 286° |
| 2026-05-01 11:27 | 49.31882 | 59.74916 | 37961 ft | 489 kts | 286° |
| 2026-05-01 11:28 | 49.34048 | 59.65051 | 37964 ft | 489 kts | 286° |
| 2026-05-01 11:28 | 49.36201 | 59.55192 | 37981 ft | 489 kts | 285° |
| 2026-05-01 11:29 | 49.39437 | 59.40285 | 37980 ft | 489 kts | 285° |
| 2026-05-01 11:30 | 49.42639 | 59.25427 | 37980 ft | 488 kts | 285° |
| 2026-05-01 11:30 | 49.44765 | 59.15517 | 37980 ft | 488 kts | 285° |
| 2026-05-01 11:31 | 49.46880 | 59.05598 | 37989 ft | 488 kts | 285° |
| 2026-05-01 11:31 | 49.48987 | 58.95662 | 37989 ft | 488 kts | 285° |
| 2026-05-01 11:32 | 49.51083 | 58.85732 | 37990 ft | 488 kts | 285° |
| 2026-05-01 11:32 | 49.53171 | 58.75794 | 37989 ft | 488 kts | 285° |
| 2026-05-01 11:33 | 49.55249 | 58.65853 | 37998 ft | 487 kts | 285° |
| 2026-05-01 11:33 | 49.57316 | 58.55919 | 38004 ft | 488 kts | 285° |
| 2026-05-01 11:34 | 49.59378 | 58.45955 | 38019 ft | 488 kts | 285° |
| 2026-05-01 11:34 | 49.61344 | 58.36411 | 38017 ft | 488 kts | 285° |
| 2026-05-01 11:35 | 49.63406 | 58.26350 | 38017 ft | 488 kts | 285° |
| 2026-05-01 11:35 | 49.65429 | 58.16428 | 38017 ft | 488 kts | 285° |
| 2026-05-01 11:36 | 49.67458 | 58.06428 | 38017 ft | 488 kts | 285° |
| 2026-05-01 11:36 | 49.69493 | 57.96356 | 38017 ft | 488 kts | 284° |
| 2026-05-01 11:37 | 49.71492 | 57.86408 | 38017 ft | 488 kts | 284° |
| 2026-05-01 11:37 | 49.73476 | 57.76374 | 38019 ft | 488 kts | 284° |
| 2026-05-01 11:38 | 49.75419 | 57.66324 | 38017 ft | 488 kts | 284° |
| 2026-05-01 11:38 | 49.77356 | 57.56283 | 38018 ft | 488 kts | 284° |
| 2026-05-01 11:39 | 49.79292 | 57.46220 | 38017 ft | 488 kts | 284° |
| 2026-05-01 11:39 | 49.81221 | 57.36153 | 38017 ft | 487 kts | 284° |
| 2026-05-01 11:40 | 49.83151 | 57.26020 | 38017 ft | 487 kts | 284° |
| 2026-05-01 11:40 | 49.85046 | 57.16018 | 38017 ft | 487 kts | 284° |
| 2026-05-01 11:41 | 49.86944 | 57.05949 | 38017 ft | 487 kts | 284° |
| 2026-05-01 11:41 | 49.88834 | 56.95872 | 38017 ft | 487 kts | 284° |
| 2026-05-01 11:42 | 49.90714 | 56.85784 | 38017 ft | 487 kts | 284° |
| 2026-05-01 11:42 | 49.92586 | 56.75693 | 38017 ft | 487 kts | 284° |
| 2026-05-01 11:43 | 49.94399 | 56.65861 | 38017 ft | 487 kts | 283° |
| 2026-05-01 11:43 | 49.96247 | 56.55783 | 38018 ft | 487 kts | 283° |
| 2026-05-01 11:44 | 49.99011 | 56.40601 | 38018 ft | 487 kts | 283° |
| 2026-05-01 11:44 | 50.00847 | 56.30466 | 38018 ft | 487 kts | 283° |
| 2026-05-01 11:45 | 50.02671 | 56.20326 | 38017 ft | 488 kts | 283° |
| 2026-05-01 11:45 | 50.04469 | 56.10276 | 38017 ft | 487 kts | 283° |
| 2026-05-01 11:46 | 50.06278 | 56.00103 | 38017 ft | 487 kts | 283° |
| 2026-05-01 11:46 | 50.08077 | 55.89931 | 38017 ft | 487 kts | 283° |
| 2026-05-01 11:47 | 50.09866 | 55.79757 | 38017 ft | 487 kts | 283° |
| 2026-05-01 11:47 | 50.11645 | 55.69587 | 38017 ft | 487 kts | 283° |
| 2026-05-01 11:48 | 50.13419 | 55.59393 | 38015 ft | 487 kts | 283° |
| 2026-05-01 11:48 | 50.15182 | 55.49190 | 38008 ft | 488 kts | 283° |
| 2026-05-01 11:49 | 50.16876 | 55.39323 | 38008 ft | 488 kts | 283° |
| 2026-05-01 11:49 | 50.18624 | 55.29100 | 38009 ft | 488 kts | 283° |
| 2026-05-01 11:50 | 50.20366 | 55.18857 | 38008 ft | 488 kts | 283° |
| 2026-05-01 11:50 | 50.22095 | 55.08610 | 38008 ft | 488 kts | 282° |
| 2026-05-01 11:51 | 50.23815 | 54.98358 | 38008 ft | 488 kts | 282° |
| 2026-05-01 11:51 | 50.25528 | 54.88097 | 38008 ft | 488 kts | 282° |
| 2026-05-01 11:52 | 50.27232 | 54.77824 | 38008 ft | 488 kts | 282° |
| 2026-05-01 11:52 | 50.28926 | 54.67557 | 38008 ft | 488 kts | 282° |
| 2026-05-01 11:53 | 50.30703 | 54.57343 | 38009 ft | 489 kts | 287° |
| 2026-05-01 11:53 | 50.33355 | 54.47492 | 38031 ft | 491 kts | 292° |
| 2026-05-01 11:54 | 50.36199 | 54.37767 | 38045 ft | 492 kts | 292° |
| 2026-05-01 11:54 | 50.39068 | 54.28049 | 38049 ft | 492 kts | 292° |
| 2026-05-01 11:55 | 50.41921 | 54.18305 | 38052 ft | 491 kts | 292° |
| 2026-05-01 11:55 | 50.44755 | 54.08550 | 38062 ft | 492 kts | 292° |
| 2026-05-01 11:56 | 50.46162 | 54.03698 | 38460 ft | 483 kts | 292° |
| 2026-05-01 11:56 | 50.47541 | 53.98926 | 38832 ft | 478 kts | 292° |
| 2026-05-01 11:56 | 50.48913 | 53.94164 | 38985 ft | 479 kts | 292° |
| 2026-05-01 11:56 | 50.50280 | 53.89401 | 39100 ft | 479 kts | 292° |
| 2026-05-01 11:57 | 50.51646 | 53.84634 | 39234 ft | 480 kts | 292° |
| 2026-05-01 11:57 | 50.52556 | 53.81462 | 39325 ft | 479 kts | 292° |
| 2026-05-01 11:57 | 50.54384 | 53.75070 | 39499 ft | 480 kts | 292° |
| 2026-05-01 11:57 | 50.55747 | 53.70295 | 39622 ft | 480 kts | 292° |
| 2026-05-01 11:58 | 50.58480 | 53.60694 | 39807 ft | 481 kts | 291° |
| 2026-05-01 11:58 | 50.61204 | 53.51079 | 40000 ft | 481 kts | 291° |
| 2026-05-01 11:59 | 50.62569 | 53.46245 | 40016 ft | 483 kts | 291° |
| 2026-05-01 11:59 | 50.65305 | 53.36533 | 40020 ft | 487 kts | 291° |
| 2026-05-01 12:00 | 50.69436 | 53.21795 | 40024 ft | 492 kts | 291° |
| 2026-05-01 12:01 | 50.73578 | 53.06922 | 40029 ft | 495 kts | 291° |
| 2026-05-01 12:01 | 50.76340 | 52.96951 | 40028 ft | 496 kts | 291° |
| 2026-05-01 12:02 | 50.79093 | 52.86970 | 40032 ft | 496 kts | 291° |
| 2026-05-01 12:02 | 50.81843 | 52.76958 | 40034 ft | 496 kts | 291° |
| 2026-05-01 12:03 | 50.84585 | 52.66931 | 40035 ft | 497 kts | 291° |
| 2026-05-01 12:03 | 50.87317 | 52.56909 | 40034 ft | 495 kts | 291° |
| 2026-05-01 12:04 | 50.90053 | 52.46920 | 40032 ft | 495 kts | 291° |
| 2026-05-01 12:04 | 50.92795 | 52.36915 | 40045 ft | 494 kts | 291° |
| 2026-05-01 12:05 | 50.95064 | 52.28601 | 40045 ft | 494 kts | 291° |
| 2026-05-01 12:05 | 50.99127 | 52.13560 | 40042 ft | 494 kts | 291° |
| 2026-05-01 12:06 | 51.01822 | 52.03524 | 40053 ft | 494 kts | 291° |
| 2026-05-01 12:06 | 51.04511 | 51.93482 | 40042 ft | 494 kts | 291° |
| 2026-05-01 12:07 | 51.07192 | 51.83432 | 40052 ft | 494 kts | 291° |
| 2026-05-01 12:07 | 51.09866 | 51.73363 | 40043 ft | 494 kts | 291° |
| 2026-05-01 12:08 | 51.12530 | 51.63293 | 40047 ft | 494 kts | 290° |
| 2026-05-01 12:08 | 51.15334 | 51.53287 | 40049 ft | 495 kts | 296° |
| 2026-05-01 12:09 | 51.18517 | 51.43881 | 40045 ft | 496 kts | 296° |
| 2026-05-01 12:09 | 51.21862 | 51.34265 | 40053 ft | 496 kts | 297° |
| 2026-05-01 12:10 | 51.26874 | 51.19840 | 40042 ft | 495 kts | 296° |
| 2026-05-01 12:11 | 51.31844 | 51.05403 | 40044 ft | 495 kts | 296° |
| 2026-05-01 12:11 | 51.35148 | 50.95748 | 40047 ft | 495 kts | 296° |
| 2026-05-01 12:12 | 51.38445 | 50.86079 | 40045 ft | 495 kts | 296° |
| 2026-05-01 12:12 | 51.41731 | 50.76407 | 40040 ft | 495 kts | 296° |
| 2026-05-01 12:13 | 51.45013 | 50.66710 | 40042 ft | 495 kts | 296° |
| 2026-05-01 12:13 | 51.48287 | 50.56997 | 40042 ft | 495 kts | 296° |
| 2026-05-01 12:14 | 51.51425 | 50.47176 | 40053 ft | 494 kts | 293° |
| 2026-05-01 12:14 | 51.54250 | 50.37106 | 40041 ft | 494 kts | 292° |
| 2026-05-01 12:15 | 51.57055 | 50.27010 | 40046 ft | 495 kts | 292° |
| 2026-05-01 12:15 | 51.59900 | 50.16942 | 40041 ft | 495 kts | 292° |
| 2026-05-01 12:16 | 51.62769 | 50.06858 | 40045 ft | 495 kts | 292° |
| 2026-05-01 12:16 | 51.65630 | 49.96776 | 40044 ft | 495 kts | 292° |
| 2026-05-01 12:17 | 51.68490 | 49.86668 | 40041 ft | 496 kts | 292° |
| 2026-05-01 12:17 | 51.71331 | 49.76551 | 40053 ft | 495 kts | 292° |
| 2026-05-01 12:18 | 51.74160 | 49.66423 | 40043 ft | 495 kts | 292° |
| 2026-05-01 12:18 | 51.76985 | 49.56276 | 40041 ft | 495 kts | 292° |
| 2026-05-01 12:19 | 51.79799 | 49.46127 | 40055 ft | 495 kts | 292° |
| 2026-05-01 12:19 | 51.82606 | 49.35962 | 40052 ft | 495 kts | 292° |
| 2026-05-01 12:20 | 51.85404 | 49.25781 | 40063 ft | 495 kts | 292° |
| 2026-05-01 12:20 | 51.88193 | 49.15593 | 40056 ft | 495 kts | 292° |
| 2026-05-01 12:21 | 51.90971 | 49.05398 | 40049 ft | 495 kts | 292° |
| 2026-05-01 12:21 | 51.93741 | 48.95185 | 40057 ft | 495 kts | 291° |
| 2026-05-01 12:22 | 51.96503 | 48.84960 | 40058 ft | 495 kts | 291° |
| 2026-05-01 12:22 | 51.99258 | 48.74712 | 40072 ft | 496 kts | 291° |
| 2026-05-01 12:23 | 52.01998 | 48.64446 | 40067 ft | 496 kts | 291° |
| 2026-05-01 12:23 | 52.04737 | 48.54132 | 40067 ft | 498 kts | 291° |
| 2026-05-01 12:24 | 52.07472 | 48.43797 | 40060 ft | 498 kts | 291° |
| 2026-05-01 12:24 | 52.10198 | 48.33451 | 40080 ft | 498 kts | 291° |
| 2026-05-01 12:25 | 52.14269 | 48.17919 | 40092 ft | 497 kts | 291° |
| 2026-05-01 12:26 | 52.17068 | 48.07624 | 40091 ft | 498 kts | 292° |
| 2026-05-01 12:26 | 52.21331 | 47.92177 | 40092 ft | 498 kts | 292° |
| 2026-05-01 12:27 | 52.25543 | 47.76699 | 40093 ft | 498 kts | 292° |
| 2026-05-01 12:28 | 52.29729 | 47.61170 | 40091 ft | 498 kts | 292° |
| 2026-05-01 12:29 | 52.33894 | 47.45618 | 40091 ft | 498 kts | 292° |
| 2026-05-01 12:29 | 52.38049 | 47.30017 | 40091 ft | 499 kts | 292° |
| 2026-05-01 12:30 | 52.42186 | 47.14376 | 40091 ft | 499 kts | 292° |
| 2026-05-01 12:31 | 52.44933 | 47.03933 | 40092 ft | 499 kts | 292° |
| 2026-05-01 12:31 | 52.47669 | 46.93485 | 40091 ft | 499 kts | 292° |
| 2026-05-01 12:32 | 52.50398 | 46.83014 | 40101 ft | 499 kts | 291° |
| 2026-05-01 12:32 | 52.54488 | 46.67204 | 40101 ft | 499 kts | 291° |
| 2026-05-01 12:33 | 52.57184 | 46.56684 | 40101 ft | 499 kts | 291° |
| 2026-05-01 12:33 | 52.59853 | 46.46231 | 40100 ft | 499 kts | 291° |
| 2026-05-01 12:34 | 52.62550 | 46.35631 | 40100 ft | 499 kts | 291° |
| 2026-05-01 12:34 | 52.65078 | 46.25000 | 40101 ft | 498 kts | 289° |
| 2026-05-01 12:35 | 52.67418 | 46.14259 | 40101 ft | 498 kts | 288° |
| 2026-05-01 12:35 | 52.69765 | 46.03501 | 40100 ft | 498 kts | 288° |
| 2026-05-01 12:36 | 52.72135 | 45.92755 | 40100 ft | 499 kts | 289° |
| 2026-05-01 12:36 | 52.74510 | 45.82004 | 40100 ft | 499 kts | 289° |
| 2026-05-01 12:37 | 52.76878 | 45.71235 | 40100 ft | 499 kts | 289° |
| 2026-05-01 12:37 | 52.79237 | 45.60439 | 40100 ft | 499 kts | 289° |
| 2026-05-01 12:38 | 52.81585 | 45.49639 | 40100 ft | 500 kts | 288° |
| 2026-05-01 12:38 | 52.83926 | 45.38823 | 40100 ft | 500 kts | 288° |
| 2026-05-01 12:39 | 52.86248 | 45.27982 | 40101 ft | 500 kts | 288° |
| 2026-05-01 12:39 | 52.88561 | 45.17121 | 40100 ft | 500 kts | 288° |
| 2026-05-01 12:40 | 52.90867 | 45.06251 | 40109 ft | 500 kts | 288° |
| 2026-05-01 12:40 | 52.93171 | 44.95363 | 40109 ft | 500 kts | 289° |
| 2026-05-01 12:41 | 52.95577 | 44.84542 | 40109 ft | 501 kts | 289° |
| 2026-05-01 12:41 | 52.98028 | 44.73730 | 40110 ft | 501 kts | 289° |
| 2026-05-01 12:42 | 53.00456 | 44.62896 | 40109 ft | 501 kts | 289° |
| 2026-05-01 12:42 | 53.02863 | 44.52030 | 40119 ft | 501 kts | 289° |
| 2026-05-01 12:43 | 53.05254 | 44.41159 | 40120 ft | 501 kts | 289° |
| 2026-05-01 12:43 | 53.07638 | 44.30258 | 40119 ft | 502 kts | 289° |
| 2026-05-01 12:44 | 53.10008 | 44.19344 | 40125 ft | 502 kts | 289° |
| 2026-05-01 12:45 | 53.14324 | 43.99325 | 40125 ft | 502 kts | 289° |
| 2026-05-01 12:45 | 53.16670 | 43.88366 | 40130 ft | 502 kts | 289° |
| 2026-05-01 12:46 | 53.19002 | 43.77414 | 40129 ft | 503 kts | 289° |
| 2026-05-01 12:46 | 53.21329 | 43.66425 | 40131 ft | 503 kts | 289° |
| 2026-05-01 12:47 | 53.23648 | 43.55414 | 40127 ft | 503 kts | 289° |
| 2026-05-01 12:47 | 53.25743 | 43.45419 | 40129 ft | 503 kts | 288° |
| 2026-05-01 12:48 | 53.28038 | 43.34407 | 40129 ft | 503 kts | 288° |
| 2026-05-01 12:48 | 53.30328 | 43.23359 | 40137 ft | 503 kts | 288° |
| 2026-05-01 12:49 | 53.32607 | 43.12305 | 40137 ft | 503 kts | 288° |
| 2026-05-01 12:49 | 53.34875 | 43.01238 | 40138 ft | 503 kts | 288° |
| 2026-05-01 12:50 | 53.37137 | 42.90145 | 40137 ft | 503 kts | 288° |
| 2026-05-01 12:50 | 53.39371 | 42.79122 | 40145 ft | 503 kts | 288° |
| 2026-05-01 12:51 | 53.41624 | 42.67944 | 40147 ft | 503 kts | 288° |
| 2026-05-01 12:52 | 53.44966 | 42.51250 | 40147 ft | 504 kts | 288° |
| 2026-05-01 12:52 | 53.48106 | 42.34421 | 40155 ft | 504 kts | 285° |
| 2026-05-01 12:53 | 53.51002 | 42.17462 | 40156 ft | 504 kts | 285° |
| 2026-05-01 12:54 | 53.52954 | 42.06142 | 40165 ft | 504 kts | 286° |
| 2026-05-01 12:54 | 53.55885 | 41.89170 | 40196 ft | 504 kts | 286° |
| 2026-05-01 12:55 | 53.58798 | 41.72156 | 40192 ft | 504 kts | 285° |
| 2026-05-01 12:56 | 53.60724 | 41.60807 | 40196 ft | 504 kts | 285° |
| 2026-05-01 12:56 | 53.62640 | 41.49442 | 40195 ft | 504 kts | 285° |
| 2026-05-01 12:57 | 53.64544 | 41.38070 | 40191 ft | 504 kts | 285° |
| 2026-05-01 12:57 | 53.67309 | 41.21423 | 40192 ft | 504 kts | 285° |
| 2026-05-01 12:58 | 53.69199 | 41.09959 | 40194 ft | 504 kts | 285° |
| 2026-05-01 12:59 | 53.72763 | 40.93352 | 40200 ft | 504 kts | 292° |
| 2026-05-01 12:59 | 53.76960 | 40.77057 | 40198 ft | 505 kts | 293° |
| 2026-05-01 13:00 | 53.81168 | 40.60730 | 40205 ft | 505 kts | 293° |
| 2026-05-01 13:01 | 53.85357 | 40.44277 | 40203 ft | 505 kts | 293° |
| 2026-05-01 13:02 | 53.89492 | 40.27940 | 40202 ft | 505 kts | 293° |
| 2026-05-01 13:07 | 54.19334 | 39.06646 | 40210 ft | 505 kts | 292° |
| 2026-05-01 13:08 | 54.21969 | 38.95603 | 40212 ft | 505 kts | 292° |
| 2026-05-01 13:08 | 54.25247 | 38.84917 | 40209 ft | 504 kts | 302° |
| 2026-05-01 13:09 | 54.29007 | 38.74798 | 40211 ft | 504 kts | 303° |
| 2026-05-01 13:09 | 54.32840 | 38.64728 | 40189 ft | 504 kts | 303° |
| 2026-05-01 13:10 | 54.36665 | 38.54640 | 40186 ft | 504 kts | 303° |
| 2026-05-01 13:10 | 54.40465 | 38.44535 | 40191 ft | 504 kts | 303° |
| 2026-05-01 13:11 | 54.44252 | 38.34406 | 40194 ft | 504 kts | 303° |
| 2026-05-01 13:11 | 54.48029 | 38.24260 | 40193 ft | 504 kts | 303° |
| 2026-05-01 13:12 | 54.51418 | 38.13684 | 40194 ft | 505 kts | 297° |
| 2026-05-01 13:12 | 54.54505 | 38.02832 | 40199 ft | 505 kts | 296° |
| 2026-05-01 13:13 | 54.57539 | 37.91922 | 40203 ft | 505 kts | 296° |
| 2026-05-01 13:13 | 54.60068 | 37.82785 | 40204 ft | 504 kts | 296° |
| 2026-05-01 13:14 | 54.63579 | 37.70083 | 40205 ft | 504 kts | 296° |
| 2026-05-01 13:14 | 54.66593 | 37.59140 | 40202 ft | 504 kts | 296° |
| 2026-05-01 13:15 | 54.69598 | 37.48178 | 40203 ft | 505 kts | 296° |
| 2026-05-01 13:15 | 54.72051 | 37.36830 | 40201 ft | 506 kts | 283° |
| 2026-05-01 13:16 | 54.72775 | 37.24720 | 40201 ft | 507 kts | 273° |
| 2026-05-01 13:16 | 54.72952 | 37.12531 | 40209 ft | 508 kts | 272° |
| 2026-05-01 13:17 | 54.73142 | 36.88060 | 40211 ft | 508 kts | 272° |
| 2026-05-01 13:18 | 54.73301 | 36.69716 | 40210 ft | 508 kts | 272° |
| 2026-05-01 13:18 | 54.73401 | 36.57487 | 40211 ft | 508 kts | 272° |
| 2026-05-01 13:19 | 54.73500 | 36.45266 | 40210 ft | 508 kts | 272° |
| 2026-05-01 13:20 | 54.73625 | 36.26916 | 40210 ft | 508 kts | 271° |
| 2026-05-01 13:20 | 54.73695 | 36.14689 | 40210 ft | 508 kts | 271° |
| 2026-05-01 13:21 | 54.73767 | 35.96338 | 40212 ft | 508 kts | 271° |
| 2026-05-01 13:21 | 54.73792 | 35.84106 | 40210 ft | 509 kts | 271° |
| 2026-05-01 13:22 | 54.73809 | 35.71860 | 40212 ft | 509 kts | 271° |
| 2026-05-01 13:22 | 54.73816 | 35.59608 | 40211 ft | 509 kts | 271° |
| 2026-05-01 13:23 | 54.73810 | 35.47369 | 40210 ft | 509 kts | 271° |
| 2026-05-01 13:23 | 54.73796 | 35.37193 | 40211 ft | 509 kts | 271° |
| 2026-05-01 13:24 | 54.73767 | 35.24934 | 40212 ft | 509 kts | 271° |
| 2026-05-01 13:25 | 54.73574 | 35.06564 | 40210 ft | 509 kts | 269° |
| 2026-05-01 13:25 | 54.73328 | 34.94305 | 40211 ft | 510 kts | 269° |
| 2026-05-01 13:26 | 54.73086 | 34.82054 | 40220 ft | 510 kts | 269° |
| 2026-05-01 13:26 | 54.72849 | 34.69792 | 40221 ft | 510 kts | 269° |
| 2026-05-01 13:27 | 54.72605 | 34.57532 | 40220 ft | 510 kts | 269° |
| 2026-05-01 13:27 | 54.72216 | 34.39132 | 40219 ft | 510 kts | 269° |
| 2026-05-01 13:28 | 54.71797 | 34.20736 | 40221 ft | 510 kts | 269° |
| 2026-05-01 13:29 | 54.71195 | 33.96210 | 40220 ft | 511 kts | 269° |
| 2026-05-01 13:31 | 54.69324 | 33.59481 | 40230 ft | 512 kts | 264° |
| 2026-05-01 13:32 | 54.67228 | 33.28948 | 40232 ft | 512 kts | 265° |
| 2026-05-01 13:33 | 54.65143 | 32.98425 | 40241 ft | 512 kts | 265° |
| 2026-05-01 13:34 | 54.63413 | 32.74020 | 40238 ft | 512 kts | 264° |
| 2026-05-01 13:35 | 54.62083 | 32.55710 | 40237 ft | 512 kts | 264° |
| 2026-05-01 13:36 | 54.60726 | 32.37437 | 40253 ft | 512 kts | 264° |
| 2026-05-01 13:36 | 54.59340 | 32.19149 | 40242 ft | 513 kts | 264° |
| 2026-05-01 13:37 | 54.58400 | 32.06966 | 40252 ft | 513 kts | 264° |
| 2026-05-01 13:37 | 54.57449 | 31.94789 | 40243 ft | 513 kts | 264° |
| 2026-05-01 13:38 | 54.55998 | 31.76522 | 40245 ft | 513 kts | 264° |
| 2026-05-01 13:39 | 54.55016 | 31.64361 | 40252 ft | 513 kts | 264° |
| 2026-05-01 13:39 | 54.54021 | 31.52199 | 40247 ft | 513 kts | 264° |
| 2026-05-01 13:40 | 54.53014 | 31.40045 | 40255 ft | 513 kts | 263° |
| 2026-05-01 13:40 | 54.51996 | 31.27894 | 40251 ft | 513 kts | 263° |
| 2026-05-01 13:41 | 54.50965 | 31.15755 | 40262 ft | 513 kts | 263° |
| 2026-05-01 13:41 | 54.50377 | 31.03570 | 40253 ft | 510 kts | 271° |
| 2026-05-01 13:42 | 54.50316 | 30.91367 | 40258 ft | 510 kts | 272° |
| 2026-05-01 13:42 | 54.50331 | 30.79159 | 40252 ft | 510 kts | 272° |
| 2026-05-01 13:43 | 54.50336 | 30.66955 | 40265 ft | 511 kts | 272° |
| 2026-05-01 13:43 | 54.50315 | 30.54732 | 40263 ft | 511 kts | 272° |
| 2026-05-01 13:44 | 54.50273 | 30.42523 | 40263 ft | 510 kts | 272° |
| 2026-05-01 13:44 | 54.50223 | 30.30308 | 40264 ft | 511 kts | 271° |
| 2026-05-01 13:45 | 54.50164 | 30.18097 | 40262 ft | 511 kts | 271° |
| 2026-05-01 13:45 | 54.50085 | 30.05876 | 40263 ft | 510 kts | 271° |
| 2026-05-01 13:46 | 54.49998 | 29.93651 | 40266 ft | 511 kts | 271° |
| 2026-05-01 13:46 | 54.49896 | 29.81428 | 40269 ft | 511 kts | 271° |
| 2026-05-01 13:47 | 54.49780 | 29.69209 | 40253 ft | 511 kts | 271° |
| 2026-05-01 13:47 | 54.49654 | 29.56997 | 40256 ft | 510 kts | 271° |
| 2026-05-01 13:48 | 54.49514 | 29.44795 | 40250 ft | 511 kts | 271° |
| 2026-05-01 13:48 | 54.49359 | 29.32581 | 40262 ft | 510 kts | 271° |
| 2026-05-01 13:49 | 54.49197 | 29.20378 | 40262 ft | 510 kts | 271° |
| 2026-05-01 13:49 | 54.49024 | 29.08181 | 40270 ft | 510 kts | 271° |
| 2026-05-01 13:50 | 54.48835 | 28.95975 | 40271 ft | 510 kts | 271° |
| 2026-05-01 13:50 | 54.48636 | 28.83787 | 40270 ft | 510 kts | 271° |
| 2026-05-01 13:51 | 54.48422 | 28.71594 | 40264 ft | 510 kts | 271° |
| 2026-05-01 13:51 | 54.48202 | 28.59608 | 40271 ft | 510 kts | 270° |
| 2026-05-01 13:52 | 54.47968 | 28.47412 | 40269 ft | 510 kts | 270° |
| 2026-05-01 13:52 | 54.47722 | 28.35226 | 40263 ft | 510 kts | 270° |
| 2026-05-01 13:53 | 54.47461 | 28.23032 | 40269 ft | 510 kts | 270° |
| 2026-05-01 13:53 | 54.47046 | 28.04749 | 40269 ft | 511 kts | 270° |
| 2026-05-01 13:54 | 54.46754 | 27.92540 | 40264 ft | 511 kts | 270° |
| 2026-05-01 13:54 | 54.46450 | 27.80354 | 40273 ft | 510 kts | 270° |
| 2026-05-01 13:55 | 54.46134 | 27.68162 | 40269 ft | 510 kts | 270° |
| 2026-05-01 13:55 | 54.45806 | 27.55987 | 40267 ft | 510 kts | 270° |
| 2026-05-01 13:56 | 54.45466 | 27.43822 | 40265 ft | 509 kts | 270° |
| 2026-05-01 13:56 | 54.45114 | 27.31668 | 40263 ft | 509 kts | 270° |
| 2026-05-01 13:57 | 54.44812 | 27.21579 | 40266 ft | 508 kts | 269° |
| 2026-05-01 13:57 | 54.44375 | 27.07402 | 40268 ft | 508 kts | 269° |
| 2026-05-01 13:58 | 54.43987 | 26.95285 | 40263 ft | 508 kts | 269° |
| 2026-05-01 13:58 | 54.43588 | 26.83171 | 40269 ft | 507 kts | 269° |
| 2026-05-01 13:59 | 54.43183 | 26.71083 | 40267 ft | 507 kts | 269° |
| 2026-05-01 13:59 | 54.42766 | 26.58992 | 40266 ft | 507 kts | 269° |
| 2026-05-01 14:00 | 54.42336 | 26.46912 | 40263 ft | 507 kts | 269° |
| 2026-05-01 14:00 | 54.41894 | 26.34834 | 40267 ft | 507 kts | 269° |
| 2026-05-01 14:01 | 54.41442 | 26.22766 | 40262 ft | 507 kts | 269° |
| 2026-05-01 14:01 | 54.40977 | 26.10697 | 40265 ft | 507 kts | 269° |
| 2026-05-01 14:02 | 54.40500 | 25.98619 | 40267 ft | 507 kts | 269° |
| 2026-05-01 14:02 | 54.40010 | 25.86547 | 40268 ft | 507 kts | 269° |
| 2026-05-01 14:03 | 54.39509 | 25.74474 | 40266 ft | 507 kts | 268° |
| 2026-05-01 14:03 | 54.39083 | 25.64457 | 40263 ft | 507 kts | 268° |
| 2026-05-01 14:04 | 54.38494 | 25.52403 | 40266 ft | 507 kts | 265° |
| 2026-05-01 14:04 | 54.37502 | 25.40416 | 40269 ft | 508 kts | 264° |
| 2026-05-01 14:05 | 54.36428 | 25.28459 | 40267 ft | 507 kts | 264° |
| 2026-05-01 14:05 | 54.35234 | 25.14570 | 40268 ft | 506 kts | 264° |
| 2026-05-01 14:06 | 54.34393 | 25.04560 | 40266 ft | 506 kts | 264° |
| 2026-05-01 14:06 | 54.33387 | 24.92633 | 40263 ft | 505 kts | 264° |
| 2026-05-01 14:07 | 54.32370 | 24.80729 | 40266 ft | 505 kts | 264° |
| 2026-05-01 14:08 | 54.30820 | 24.62900 | 40269 ft | 505 kts | 264° |
| 2026-05-01 14:08 | 54.29772 | 24.51017 | 40275 ft | 505 kts | 264° |
| 2026-05-01 14:09 | 54.28711 | 24.39141 | 40274 ft | 504 kts | 264° |
| 2026-05-01 14:09 | 54.27641 | 24.27285 | 40277 ft | 504 kts | 264° |
| 2026-05-01 14:10 | 54.26557 | 24.15414 | 40275 ft | 504 kts | 263° |
| 2026-05-01 14:10 | 54.25463 | 24.03577 | 40275 ft | 505 kts | 263° |
| 2026-05-01 14:11 | 54.24356 | 23.91715 | 40276 ft | 504 kts | 263° |
| 2026-05-01 14:11 | 54.22675 | 23.73963 | 40284 ft | 504 kts | 263° |
| 2026-05-01 14:12 | 54.21540 | 23.62134 | 40286 ft | 504 kts | 263° |
| 2026-05-01 14:12 | 54.20400 | 23.50391 | 40284 ft | 504 kts | 263° |
| 2026-05-01 14:13 | 54.18827 | 23.38640 | 40287 ft | 507 kts | 251° |
| 2026-05-01 14:13 | 54.16269 | 23.27421 | 40284 ft | 508 kts | 250° |
| 2026-05-01 14:14 | 54.13530 | 23.16318 | 40284 ft | 508 kts | 249° |
| 2026-05-01 14:14 | 54.10784 | 23.05321 | 40293 ft | 507 kts | 249° |
| 2026-05-01 14:15 | 54.08021 | 22.94187 | 40292 ft | 506 kts | 250° |
| 2026-05-01 14:15 | 54.06137 | 22.82703 | 40294 ft | 502 kts | 260° |
| 2026-05-01 14:16 | 54.04753 | 22.71177 | 40294 ft | 502 kts | 261° |
| 2026-05-01 14:16 | 54.03424 | 22.59532 | 40294 ft | 502 kts | 261° |
| 2026-05-01 14:17 | 54.02075 | 22.47878 | 40294 ft | 502 kts | 261° |
| 2026-05-01 14:17 | 54.00700 | 22.36238 | 40302 ft | 502 kts | 261° |
| 2026-05-01 14:18 | 53.99309 | 22.24622 | 40302 ft | 502 kts | 261° |
| 2026-05-01 14:18 | 53.98143 | 22.14960 | 40302 ft | 502 kts | 261° |
| 2026-05-01 14:19 | 53.96490 | 22.01384 | 40303 ft | 502 kts | 261° |
| 2026-05-01 14:19 | 53.95067 | 21.89800 | 40314 ft | 502 kts | 261° |
| 2026-05-01 14:20 | 53.92907 | 21.72398 | 40312 ft | 502 kts | 260° |
| 2026-05-01 14:21 | 53.91455 | 21.60821 | 40309 ft | 502 kts | 260° |
| 2026-05-01 14:21 | 53.89988 | 21.49228 | 40312 ft | 502 kts | 260° |
| 2026-05-01 14:22 | 53.87769 | 21.31867 | 40312 ft | 502 kts | 260° |
| 2026-05-01 14:22 | 53.86277 | 21.20309 | 40306 ft | 503 kts | 260° |
| 2026-05-01 14:23 | 53.84775 | 21.08741 | 40315 ft | 502 kts | 259° |
| 2026-05-01 14:23 | 53.83255 | 20.97191 | 40315 ft | 502 kts | 259° |
| 2026-05-01 14:24 | 53.81725 | 20.85666 | 40316 ft | 502 kts | 259° |
| 2026-05-01 14:24 | 53.80185 | 20.74141 | 40320 ft | 502 kts | 259° |
| 2026-05-01 14:25 | 53.78637 | 20.62637 | 40320 ft | 502 kts | 259° |
| 2026-05-01 14:25 | 53.77077 | 20.51135 | 40316 ft | 501 kts | 259° |
| 2026-05-01 14:26 | 53.74723 | 20.33926 | 40326 ft | 501 kts | 259° |
| 2026-05-01 14:27 | 53.73136 | 20.22479 | 40324 ft | 501 kts | 259° |
| 2026-05-01 14:27 | 53.71540 | 20.11036 | 40316 ft | 501 kts | 258° |
| 2026-05-01 14:28 | 53.69126 | 19.93884 | 40324 ft | 500 kts | 258° |
| 2026-05-01 14:28 | 53.67510 | 19.82478 | 40318 ft | 500 kts | 258° |
| 2026-05-01 14:29 | 53.65877 | 19.71069 | 40321 ft | 500 kts | 258° |
| 2026-05-01 14:30 | 53.62574 | 19.48282 | 40324 ft | 500 kts | 258° |
| 2026-05-01 14:31 | 53.60074 | 19.31233 | 40319 ft | 500 kts | 258° |
| 2026-05-01 14:31 | 53.58393 | 19.19867 | 40323 ft | 500 kts | 258° |
| 2026-05-01 14:32 | 53.56703 | 19.08524 | 40320 ft | 500 kts | 258° |
| 2026-05-01 14:32 | 53.55002 | 18.97191 | 40317 ft | 500 kts | 258° |
| 2026-05-01 14:33 | 53.53295 | 18.85879 | 40321 ft | 499 kts | 257° |
| 2026-05-01 14:33 | 53.52530 | 18.74378 | 40318 ft | 493 kts | 275° |
| 2026-05-01 14:34 | 53.53124 | 18.62915 | 40325 ft | 492 kts | 278° |
| 2026-05-01 14:34 | 53.53937 | 18.51606 | 40328 ft | 491 kts | 279° |
| 2026-05-01 14:35 | 53.54766 | 18.40207 | 40325 ft | 491 kts | 278° |
| 2026-05-01 14:35 | 53.55559 | 18.28805 | 40320 ft | 491 kts | 278° |
| 2026-05-01 14:36 | 53.56325 | 18.17406 | 40324 ft | 490 kts | 278° |
| 2026-05-01 14:36 | 53.56951 | 18.07928 | 40317 ft | 490 kts | 278° |
| 2026-05-01 14:37 | 53.57820 | 17.94597 | 40321 ft | 490 kts | 278° |
| 2026-05-01 14:37 | 53.58555 | 17.83216 | 40322 ft | 490 kts | 278° |
| 2026-05-01 14:38 | 53.59275 | 17.71820 | 40324 ft | 490 kts | 278° |
| 2026-05-01 14:38 | 53.59986 | 17.60412 | 40323 ft | 490 kts | 278° |
| 2026-05-01 14:39 | 53.60687 | 17.48992 | 40322 ft | 490 kts | 277° |
| 2026-05-01 14:39 | 53.61377 | 17.37584 | 40317 ft | 490 kts | 277° |
| 2026-05-01 14:40 | 53.62056 | 17.26168 | 40326 ft | 490 kts | 277° |
| 2026-05-01 14:40 | 53.62726 | 17.14730 | 40320 ft | 490 kts | 277° |
| 2026-05-01 14:41 | 53.63384 | 17.03294 | 40318 ft | 490 kts | 277° |
| 2026-05-01 14:41 | 53.64032 | 16.91857 | 40318 ft | 490 kts | 277° |
| 2026-05-01 14:42 | 53.64669 | 16.80416 | 40319 ft | 490 kts | 277° |
| 2026-05-01 14:42 | 53.65188 | 16.70911 | 40324 ft | 490 kts | 277° |
| 2026-05-01 14:43 | 53.65892 | 16.57809 | 40327 ft | 490 kts | 277° |
| 2026-05-01 14:43 | 53.66494 | 16.46381 | 40327 ft | 490 kts | 276° |
| 2026-05-01 14:44 | 53.67085 | 16.34945 | 40327 ft | 489 kts | 276° |
| 2026-05-01 14:44 | 53.67948 | 16.17866 | 40327 ft | 489 kts | 276° |
| 2026-05-01 14:45 | 53.68790 | 16.00717 | 40342 ft | 489 kts | 276° |
| 2026-05-01 14:46 | 53.69337 | 15.89288 | 40349 ft | 489 kts | 276° |
| 2026-05-01 14:46 | 53.70060 | 15.73998 | 40349 ft | 489 kts | 276° |
| 2026-05-01 14:47 | 53.70584 | 15.62558 | 40348 ft | 489 kts | 276° |
| 2026-05-01 14:48 | 53.71350 | 15.45379 | 40357 ft | 489 kts | 276° |
| 2026-05-01 14:48 | 53.72094 | 15.28188 | 40359 ft | 490 kts | 275° |
| 2026-05-01 14:49 | 53.73049 | 15.05250 | 40357 ft | 490 kts | 275° |
| 2026-05-01 14:50 | 53.73960 | 14.82284 | 40359 ft | 490 kts | 275° |
| 2026-05-01 14:51 | 53.74614 | 14.65062 | 40357 ft | 490 kts | 275° |
| 2026-05-01 14:52 | 53.75244 | 14.47842 | 40365 ft | 490 kts | 275° |
| 2026-05-01 14:53 | 53.75849 | 14.30601 | 40368 ft | 490 kts | 274° |
| 2026-05-01 14:53 | 53.76148 | 14.19108 | 40366 ft | 490 kts | 272° |
| 2026-05-01 14:54 | 53.76176 | 14.07591 | 40374 ft | 490 kts | 271° |
| 2026-05-01 14:54 | 53.76177 | 13.96084 | 40375 ft | 490 kts | 271° |
| 2026-05-01 14:55 | 53.76207 | 13.84573 | 40367 ft | 490 kts | 271° |
| 2026-05-01 14:55 | 53.76253 | 13.73060 | 40366 ft | 490 kts | 271° |
| 2026-05-01 14:56 | 53.76282 | 13.61538 | 40365 ft | 490 kts | 271° |
| 2026-05-01 14:56 | 53.76273 | 13.50041 | 40367 ft | 490 kts | 270° |
| 2026-05-01 14:57 | 53.76153 | 13.38523 | 40367 ft | 490 kts | 270° |
| 2026-05-01 14:57 | 53.75922 | 13.21260 | 40365 ft | 490 kts | 270° |
| 2026-05-01 14:58 | 53.75773 | 13.09745 | 40375 ft | 490 kts | 270° |
| 2026-05-01 14:58 | 53.75620 | 12.98244 | 40375 ft | 490 kts | 269° |
| 2026-05-01 14:59 | 53.75457 | 12.86734 | 40377 ft | 490 kts | 269° |
| 2026-05-01 14:59 | 53.75287 | 12.75227 | 40377 ft | 490 kts | 269° |
| 2026-05-01 15:00 | 53.75060 | 12.57993 | 40374 ft | 489 kts | 269° |
| 2026-05-01 15:01 | 53.74892 | 12.46489 | 40373 ft | 489 kts | 269° |
| 2026-05-01 15:01 | 53.74678 | 12.35010 | 40376 ft | 489 kts | 268° |
| 2026-05-01 15:02 | 53.74316 | 12.23537 | 40374 ft | 489 kts | 263° |
| 2026-05-01 15:02 | 53.72989 | 12.12278 | 40376 ft | 490 kts | 257° |
| 2026-05-01 15:03 | 53.71298 | 12.01122 | 40366 ft | 490 kts | 256° |
| 2026-05-01 15:03 | 53.69538 | 11.90001 | 40368 ft | 491 kts | 256° |
| 2026-05-01 15:04 | 53.67787 | 11.78871 | 40365 ft | 491 kts | 256° |
| 2026-05-01 15:04 | 53.66043 | 11.67741 | 40368 ft | 491 kts | 256° |
| 2026-05-01 15:05 | 53.64297 | 11.56632 | 40358 ft | 491 kts | 256° |
| 2026-05-01 15:05 | 53.62539 | 11.45526 | 40359 ft | 491 kts | 256° |
| 2026-05-01 15:06 | 53.60768 | 11.34421 | 40356 ft | 491 kts | 255° |
| 2026-05-01 15:06 | 53.58991 | 11.23348 | 40359 ft | 491 kts | 255° |
| 2026-05-01 15:07 | 53.57200 | 11.12268 | 40346 ft | 490 kts | 255° |
| 2026-05-01 15:07 | 53.55400 | 11.01199 | 40348 ft | 490 kts | 255° |
| 2026-05-01 15:08 | 53.53602 | 10.90219 | 40348 ft | 490 kts | 255° |
| 2026-05-01 15:08 | 53.51782 | 10.79173 | 40349 ft | 490 kts | 255° |
| 2026-05-01 15:09 | 53.49951 | 10.68133 | 40346 ft | 490 kts | 255° |
| 2026-05-01 15:09 | 53.48114 | 10.57125 | 40349 ft | 490 kts | 255° |
| 2026-05-01 15:10 | 53.46263 | 10.46107 | 40349 ft | 490 kts | 255° |
| 2026-05-01 15:10 | 53.43471 | 10.29614 | 40348 ft | 490 kts | 254° |
| 2026-05-01 15:11 | 53.40657 | 10.13150 | 40348 ft | 490 kts | 254° |
| 2026-05-01 15:12 | 53.38767 | 10.02174 | 40349 ft | 490 kts | 254° |
| 2026-05-01 15:12 | 53.35964 | 9.86022 | 40329 ft | 490 kts | 254° |
| 2026-05-01 15:14 | 53.31162 | 9.58691 | 40320 ft | 490 kts | 253° |
| 2026-05-01 15:14 | 53.28251 | 9.42323 | 40318 ft | 490 kts | 253° |
| 2026-05-01 15:15 | 53.24337 | 9.20545 | 40320 ft | 489 kts | 253° |
| 2026-05-01 15:16 | 53.20384 | 8.98805 | 40321 ft | 489 kts | 253° |
| 2026-05-01 15:18 | 53.15387 | 8.71690 | 40322 ft | 489 kts | 253° |
| 2026-05-01 15:19 | 53.11345 | 8.50048 | 40317 ft | 489 kts | 253° |
| 2026-05-01 15:19 | 53.08292 | 8.33858 | 40309 ft | 489 kts | 253° |
| 2026-05-01 15:20 | 53.05217 | 8.17695 | 40306 ft | 489 kts | 252° |
| 2026-05-01 15:21 | 53.03153 | 8.06923 | 40302 ft | 489 kts | 252° |
| 2026-05-01 15:21 | 53.01081 | 7.96173 | 40294 ft | 489 kts | 252° |
| 2026-05-01 15:22 | 52.97957 | 7.80071 | 40289 ft | 489 kts | 252° |
| 2026-05-01 15:22 | 52.95860 | 7.69343 | 40285 ft | 488 kts | 252° |
| 2026-05-01 15:23 | 52.93756 | 7.58634 | 40275 ft | 488 kts | 252° |
| 2026-05-01 15:23 | 52.91642 | 7.47934 | 40275 ft | 488 kts | 252° |
| 2026-05-01 15:24 | 52.89519 | 7.37250 | 40269 ft | 488 kts | 252° |
| 2026-05-01 15:24 | 52.87388 | 7.26581 | 40266 ft | 488 kts | 252° |
| 2026-05-01 15:25 | 52.85261 | 7.15992 | 40266 ft | 488 kts | 252° |
| 2026-05-01 15:25 | 52.83096 | 7.05273 | 40269 ft | 488 kts | 251° |
| 2026-05-01 15:26 | 52.80950 | 6.94703 | 40262 ft | 488 kts | 251° |
| 2026-05-01 15:26 | 52.78767 | 6.84010 | 40258 ft | 488 kts | 251° |
| 2026-05-01 15:27 | 52.76590 | 6.73403 | 40260 ft | 488 kts | 251° |
| 2026-05-01 15:28 | 52.73679 | 6.59310 | 40258 ft | 488 kts | 251° |
| 2026-05-01 15:28 | 52.71480 | 6.48727 | 40253 ft | 487 kts | 251° |
| 2026-05-01 15:29 | 52.68166 | 6.32887 | 40232 ft | 487 kts | 251° |
| 2026-05-01 15:30 | 52.64094 | 6.13589 | 40245 ft | 487 kts | 251° |
| 2026-05-01 15:31 | 52.56972 | 5.80272 | 40231 ft | 487 kts | 250° |
| 2026-05-01 15:32 | 52.52432 | 5.59315 | 40232 ft | 487 kts | 250° |
| 2026-05-01 15:34 | 52.45554 | 5.27967 | 40229 ft | 486 kts | 250° |